Flight Track Log - Related Links

Times and Time Zones

All times are in EST time to prevent confusion due to time zone crossing. See the ASQ5740 flight status page for this flight to view local times or setup timezone preferences in your user account.

Time Position Orientation Groundspeed Altitude Reporting Facility
EST Latitude Longitude Course Direction KTS MPH feet Rate Location/Type
Thu 01:08:24 PM 38.9167 -77.5167 226° Southwest 199 229 2,300  Level Potomac TRACON
Thu 01:09:18 PM 38.8500 -77.5167 180° South 235 270 5,000 2,599 Climbing Potomac TRACON
Thu 01:10:00 PM 38.7279 -77.7376 224° Southwest  Level Estimated
Thu 01:11:00 PM 38.6545 -77.8297 238° Southwest  Level Estimated
Thu 01:11:01 PM 38.7414 -77.5319 186° South 265 305 9,100  Level Washington Center
Thu 01:11:58 PM 38.6619 -77.5406 185° South 277 319 10,900 1,966 Climbing Washington Center
Thu 01:12:00 PM 38.5811 -77.9217 238° Southwest  Level Estimated
Thu 01:13:00 PM 38.5077 -78.0135 226° Southwest  Level Estimated
Thu 01:13:00 PM 38.5761 -77.5647 192° South 299 344 13,000  Level Washington Center
Thu 01:14:01 PM 38.5083 -77.6372 220° Southwest 299 344 15,000 1,983 Climbing Washington Center
Thu 01:15:01 PM 38.4381 -77.7122 220° Southwest 320 368 17,000 1,780 Climbing Washington Center
Thu 01:15:59 PM 38.3658 -77.7844 218° Southwest 333 383 18,500 1,627 Climbing Washington Center
Thu 01:16:59 PM 38.2914 -77.8642 220° Southwest 333 383 20,200 1,339 Climbing Washington Center
Thu 01:18:00 PM 38.2192 -77.9414 220° Southwest 333 383 21,200 992 Climbing Washington Center
Thu 01:19:00 PM 38.1403 -78.0206 218° Southwest 345 397 22,200 1,000 Climbing Washington Center
Thu 01:20:00 PM 38.0636 -78.1025 220° Southwest 352 405 23,200 942 Climbing Washington Center
Thu 01:21:01 PM 38.0039 -78.1692 221° Southwest 358 412 24,100 1,059 Climbing Washington Center
Thu 01:21:59 PM 37.9306 -78.2797 230° Southwest 348 400 25,300 1,119 Climbing Washington Center
Thu 01:22:59 PM 37.8636 -78.3747 228° Southwest 358 412 26,300 942 Climbing Washington Center
Thu 01:24:00 PM 37.7989 -78.4669 228° Southwest 358 412 27,200 694 Climbing Washington Center
Thu 01:25:00 PM 37.7319 -78.5642 229° Southwest 358 412 27,700 545 Climbing Washington Center
Thu 01:26:01 PM 37.6711 -78.6536 229° Southwest 363 418 28,300 763 Climbing Washington Center
Thu 01:26:58 PM 37.6039 -78.7506 229° Southwest 369 425 29,200 864 Climbing Washington Center
Thu 01:27:59 PM 37.5389 -78.8475 230° Southwest 375 432 30,000 393 Climbing Washington Center
Thu 01:29:00 PM 37.4694 -78.9439 228° Southwest 375 432 30,000  Level Washington Center
Thu 01:30:00 PM 37.4019 -79.0456 230° Southwest 375 432 30,000  Level Washington Center
Thu 01:31:01 PM 37.3278 -79.1517 229° Southwest 375 432 30,000  Level Washington Center
Thu 01:32:01 PM 37.2603 -79.2503 229° Southwest 375 432 30,000  Level Washington Center
Thu 01:32:59 PM 37.1925 -79.3489 229° Southwest 375 432 30,000  Level Washington Center
Thu 01:34:00 PM 37.1247 -79.4444 228° Southwest 375 432 30,000  Level Washington Center
Thu 01:35:01 PM 37.0592 -79.5403 229° Southwest 375 432 30,000  Level Washington Center
Thu 01:35:59 PM 36.9931 -79.6383 230° Southwest 375 432 30,000  Level Washington Center
Thu 01:36:59 PM 36.9339 -79.7233 229° Southwest 375 432 30,000 -298 Level Washington Center
Thu 01:38:00 PM 36.8681 -79.8161 228° Southwest 375 432 29,400 -556 Descending Washington Center
Thu 01:40:35 PM 36.6967 -80.0594 229° Southwest 344 396 28,000 -391 Descending Atlanta Center
Thu 01:41:35 PM 36.6228 -80.1639 229° Southwest 378 435 28,000  Level Atlanta Center
Thu 01:42:35 PM 36.5528 -80.2578 227° Southwest 378 435 28,000 -450 Level Atlanta Center
Thu 01:43:35 PM 36.4542 -80.3089 203° Southwest 365 420 27,100 -900 Descending Atlanta Center
Thu 01:44:35 PM 36.3428 -80.3478 196° South 391 450 26,200 -950 Descending Atlanta Center
Thu 01:45:35 PM 36.2458 -80.3831 196° South 405 466 25,200 -1,000 Descending Atlanta Center
Thu 01:46:35 PM 36.1406 -80.4186 195° South 405 466 24,200 -600 Descending Atlanta Center
Thu 01:47:35 PM 36.0392 -80.4514 195° South 392 451 24,000 -450 Descending Atlanta Center
Thu 01:48:35 PM 35.9442 -80.4864 197° South 375 432 23,300 -1,550 Descending Atlanta Center
Thu 01:49:35 PM 35.8431 -80.5217 196° South 357 411 20,900 -1,650 Descending Atlanta Center
Thu 01:50:35 PM 35.7519 -80.5486 193° South 346 398 20,000 -450 Descending Atlanta Center
Thu 01:51:35 PM 35.7006 -80.6428 236° Southwest 312 359 20,000  Level Atlanta Center
Thu 01:52:35 PM 35.6569 -80.7264 237° Southwest 312 359 20,000 -217 Level Atlanta Center
Thu 01:52:58 PM 35.6414 -80.7706 247° West 312 359 19,700 -1,000 Descending Atlanta Center
Thu 01:53:35 PM 35.6175 -80.8097 233° Southwest 312 359 19,000 -990 Descending Atlanta Center
Thu 01:54:35 PM 35.5717 -80.8983 238° Southwest 312 359 18,100 -1,082 Descending Atlanta Center
Thu 01:54:36 PM 35.5681 -80.9164 256° West 305 351 17,900 -1,600 Descending Atlanta Center
Thu 01:55:35 PM 35.5258 -80.9817 232° Southwest 312 359 16,500 -1,600 Descending Atlanta Center
Thu 01:55:36 PM 35.5242 -80.9997 264° West 297 342 16,300 -1,500 Descending Atlanta Center
Thu 01:56:35 PM 35.4861 -81.0647 234° Southwest 300 345 15,000 -1,574 Descending Atlanta Center
Thu 01:56:37 PM 35.4822 -81.0803 253° West 282 325 14,700 -1,900 Descending Atlanta Center
Thu 01:57:35 PM 35.4381 -81.1533 233° Southwest 295 339 13,100 -1,574 Descending Atlanta Center
Thu 01:57:38 PM 35.4364 -81.1661 261° West 274 315 13,100  Level Atlanta Center
Thu 01:58:35 PM 35.4003 -81.2311 236° Southwest 291 335 13,100  Level Atlanta Center
Thu 01:58:39 PM 35.3944 -81.2464 245° Southwest 287 330 13,100 -500 Level Atlanta Center
Thu 01:59:35 PM 35.3583 -81.3164 238° Southwest 291 335 12,600 -627 Descending Atlanta Center
Thu 01:59:46 PM 35.3483 -81.3347 236° Southwest 288 331 12,400 -800 Descending Atlanta Center
Thu 02:00:35 PM 35.3164 -81.3942 237° Southwest 291 335 11,800 -873 Descending Atlanta Center
Thu 02:00:41 PM 35.3083 -81.4072 233° Southwest 276 318 11,600 -800 Descending Atlanta Center
Thu 02:01:35 PM 35.2742 -81.4744 238° Southwest 285 328 11,000 -789 Descending Atlanta Center
Thu 02:02:35 PM 35.2258 -81.5572 234° Southwest 285 328 10,100 -900 Descending Atlanta Center
Thu 02:04:00 PM 35.1464 -81.6906 239° Southwest  Level FlightAware Approximate
Thu 02:11:00 PM 34.8833 -82.2167 231° Southwest  Level FlightAware Approximate
Thu 02:12:00 PM 34.8957 -82.2189 231° Southwest  Level Estimated
Thu 02:13:00 PM 34.8957 -82.2189 231° Southwest  Level Estimated
Thu 02:14:00 PM 34.8957 -82.2189 231° Southwest  Level Estimated
Thu 02:15:00 PM 34.8957 -82.2189 231° Southwest  Level Estimated
Thu 02:16:00 PM 34.8957 -82.2189 231° Southwest  Level Estimated
Thu 02:17:00 PM 34.8957 -82.2189 231° Southwest  Level Estimated
Thu 02:18:00 PM 34.8957 -82.2189 231° Southwest  Level Estimated
Thu 02:19:00 PM 34.8957 -82.2189 231° Southwest  Level Estimated

Login

Don't have an account? Register now (free) for customized features, flight alerts, and more!